createdAt,value
2022-08-24T00:01:08.681Z,0.00
2022-08-24T00:06:05.008Z,0.00
2022-08-24T00:11:05.349Z,0.00
2022-08-24T00:16:03.546Z,0.00
2022-08-24T00:21:02.756Z,0.00
2022-08-24T00:26:01.914Z,0.00
2022-08-24T00:31:01.102Z,0.00
2022-08-24T00:36:02.323Z,0.00
2022-08-24T00:41:00.591Z,0.00
2022-08-24T00:45:58.860Z,0.00
2022-08-24T00:50:58.098Z,0.00
2022-08-24T00:55:57.434Z,0.00
2022-08-24T01:00:56.727Z,0.00
2022-08-24T01:05:54.898Z,0.00
2022-08-24T01:10:55.108Z,0.00
2022-08-24T01:15:54.340Z,0.00
2022-08-24T01:20:53.577Z,0.00
2022-08-24T01:25:52.791Z,0.00
2022-08-24T01:30:53.112Z,0.00
2022-08-24T01:35:52.422Z,0.00
2022-08-24T01:40:50.805Z,0.00
2022-08-24T01:45:50.963Z,0.00
2022-08-24T01:50:49.114Z,0.00
2022-08-24T01:55:48.250Z,0.00
2022-08-24T02:00:46.578Z,0.00
2022-08-24T02:05:48.920Z,0.00
2022-08-24T02:10:52.945Z,0.00
2022-08-24T02:15:48.646Z,0.00
2022-08-24T02:20:44.827Z,0.00
2022-08-24T02:25:43.499Z,0.00
2022-08-24T02:30:43.889Z,0.00
2022-08-24T02:35:45.992Z,0.00
2022-08-24T02:40:43.054Z,0.00
2022-08-24T02:45:41.545Z,0.00
2022-08-24T02:50:41.468Z,0.00
2022-08-24T02:55:38.392Z,0.00
2022-08-24T03:00:39.601Z,0.00
2022-08-24T03:05:39.739Z,0.00
2022-08-24T03:10:37.927Z,0.00
2022-08-24T03:15:36.161Z,0.00
2022-08-24T03:20:36.373Z,0.00
2022-08-24T03:25:34.556Z,0.00
2022-08-24T03:30:34.762Z,0.00
2022-08-24T03:35:32.924Z,0.00
2022-08-24T03:40:33.098Z,0.00
2022-08-24T03:45:32.381Z,0.00
2022-08-24T03:50:32.551Z,0.00
2022-08-24T03:55:29.686Z,0.00
2022-08-24T04:00:29.019Z,0.00
2022-08-24T04:05:28.000Z,0.00
2022-08-24T04:10:28.216Z,0.00
2022-08-24T04:15:26.360Z,0.00
2022-08-24T04:20:25.574Z,0.00
2022-08-24T04:25:28.729Z,0.00
2022-08-24T04:30:24.135Z,0.00
2022-08-24T04:35:24.326Z,8.00
2022-08-24T04:40:23.600Z,12.00
2022-08-24T04:45:22.811Z,16.00
2022-08-24T04:50:21.988Z,20.00
2022-08-24T04:55:20.184Z,20.00
2022-08-24T05:00:19.387Z,24.00
2022-08-24T05:05:18.603Z,28.00
2022-08-24T05:10:17.780Z,32.00
2022-08-24T05:15:17.025Z,36.00
2022-08-24T05:20:16.249Z,48.00
2022-08-24T05:25:14.419Z,52.00
2022-08-24T05:30:14.704Z,56.00
2022-08-24T05:35:15.038Z,56.00
2022-08-24T05:40:13.401Z,56.00
2022-08-24T05:45:14.570Z,60.00
2022-08-24T05:50:11.885Z,60.00
2022-08-24T05:55:11.204Z,64.00
2022-08-24T06:00:10.535Z,72.00
2022-08-24T06:05:10.846Z,72.00
2022-08-24T06:10:34.820Z,76.00
2022-08-24T06:15:08.379Z,80.00
2022-08-24T06:20:08.504Z,84.00
2022-08-24T06:25:06.809Z,84.00
2022-08-24T06:30:07.121Z,76.00
2022-08-24T06:35:07.446Z,80.00
2022-08-24T06:40:04.694Z,80.00
2022-08-24T06:45:03.929Z,84.00
2022-08-24T06:50:03.085Z,88.00
2022-08-24T06:55:03.242Z,92.00
2022-08-24T07:00:01.431Z,88.00
2022-08-24T07:05:00.605Z,92.00
2022-08-24T07:09:59.727Z,92.00
2022-08-24T07:14:59.991Z,92.00
2022-08-24T07:19:59.321Z,96.00
2022-08-24T07:24:57.604Z,96.00
2022-08-24T07:30:23.174Z,96.00
2022-08-24T07:34:58.303Z,100.00
2022-08-24T07:39:55.460Z,100.00
2022-08-24T07:44:55.561Z,100.00
2022-08-24T07:49:53.882Z,100.00
2022-08-24T07:54:53.201Z,104.00
2022-08-24T07:59:52.512Z,104.00
2022-08-24T08:04:51.765Z,100.00
2022-08-24T08:09:50.074Z,100.00
2022-08-24T08:14:51.368Z,104.00
2022-08-24T08:19:49.611Z,120.00
2022-08-24T08:24:49.924Z,116.00
2022-08-24T08:29:48.205Z,120.00
2022-08-24T08:34:49.482Z,120.00
2022-08-24T08:39:49.944Z,120.00
2022-08-24T08:44:48.081Z,124.00
2022-08-24T08:49:46.181Z,124.00
2022-08-24T08:54:44.516Z,124.00
2022-08-24T08:59:44.137Z,124.00
2022-08-24T09:04:43.010Z,120.00
2022-08-24T09:09:42.228Z,116.00
2022-08-24T09:14:42.436Z,116.00
2022-08-24T09:19:40.630Z,120.00
2022-08-24T09:24:38.843Z,120.00
2022-08-24T09:29:40.069Z,116.00
2022-08-24T09:34:37.368Z,116.00
2022-08-24T09:39:37.535Z,128.00
2022-08-24T09:44:37.722Z,120.00
2022-08-24T09:49:35.894Z,124.00
2022-08-24T09:54:36.097Z,124.00
2022-08-24T09:59:35.291Z,128.00
2022-08-24T10:04:35.604Z,124.00
2022-08-24T10:09:32.662Z,128.00
2022-08-24T10:14:31.843Z,128.00
2022-08-24T10:19:31.023Z,132.00
2022-08-24T10:24:31.203Z,132.00
2022-08-24T10:29:30.353Z,112.00
2022-08-24T10:34:28.530Z,128.00
2022-08-24T10:39:28.693Z,132.00
2022-08-24T10:44:28.882Z,132.00
2022-08-24T10:49:27.332Z,128.00
2022-08-24T10:54:26.302Z,128.00
2022-08-24T10:59:25.469Z,128.00
2022-08-24T11:04:24.687Z,128.00
2022-08-24T11:09:24.847Z,124.00
2022-08-24T11:14:23.046Z,124.00
2022-08-24T11:19:21.228Z,124.00
2022-08-24T11:24:23.394Z,124.00
2022-08-24T11:29:21.558Z,128.00
2022-08-24T11:34:19.721Z,132.00
2022-08-24T11:39:17.903Z,136.00
2022-08-24T11:44:17.112Z,140.00
2022-08-24T11:49:17.335Z,140.00
2022-08-24T11:54:16.549Z,132.00
2022-08-24T11:59:14.776Z,128.00
2022-08-24T12:04:15.092Z,116.00
2022-08-24T12:09:13.393Z,128.00
2022-08-24T12:14:13.713Z,148.00
2022-08-24T12:19:13.005Z,160.00
2022-08-24T12:24:11.282Z,172.00
2022-08-24T12:29:11.591Z,164.00
2022-08-24T12:34:09.914Z,156.00
2022-08-24T12:39:09.202Z,152.00
2022-08-24T12:44:09.501Z,144.00
2022-08-24T12:49:08.849Z,136.00
2022-08-24T12:54:06.985Z,128.00
2022-08-24T12:59:06.352Z,128.00
2022-08-24T13:04:05.525Z,120.00
2022-08-24T13:09:04.678Z,120.00
2022-08-24T13:14:04.020Z,116.00
2022-08-24T13:19:04.167Z,120.00
2022-08-24T13:24:02.454Z,120.00
2022-08-24T13:29:02.723Z,116.00
2022-08-24T13:34:00.996Z,120.00
2022-08-24T13:39:01.322Z,120.00
2022-08-24T13:43:59.613Z,128.00
2022-08-24T13:48:59.903Z,132.00
2022-08-24T13:53:59.196Z,132.00
2022-08-24T13:58:58.492Z,136.00
2022-08-24T14:03:56.755Z,136.00
2022-08-24T14:08:56.101Z,144.00
2022-08-24T14:13:55.457Z,148.00
2022-08-24T14:18:55.517Z,156.00
2022-08-24T14:23:55.760Z,160.00
2022-08-24T14:28:52.870Z,160.00
2022-08-24T14:33:52.198Z,156.00
2022-08-24T14:38:55.391Z,148.00
2022-08-24T14:43:50.499Z,152.00
2022-08-24T14:48:49.821Z,156.00
2022-08-24T14:53:49.981Z,164.00
2022-08-24T14:58:48.297Z,184.00
2022-08-24T15:03:47.626Z,200.00
2022-08-24T15:08:46.979Z,212.00
2022-08-24T15:13:46.252Z,220.00
2022-08-24T15:18:45.436Z,240.00
2022-08-24T15:23:44.626Z,256.00
2022-08-24T15:28:55.408Z,260.00
2022-08-24T15:33:43.089Z,284.00
2022-08-24T15:38:43.257Z,332.00
2022-08-24T15:43:41.456Z,308.00
2022-08-24T15:48:42.621Z,288.00
2022-08-24T15:53:40.784Z,288.00
2022-08-24T15:58:38.964Z,272.00
2022-08-24T16:03:39.142Z,332.00
2022-08-24T16:08:40.427Z,344.00
2022-08-24T16:13:37.595Z,440.00
2022-08-24T16:18:35.785Z,540.00
2022-08-24T16:23:34.957Z,404.00
2022-08-24T16:28:34.195Z,580.00
2022-08-24T16:33:33.354Z,420.00
2022-08-24T16:38:34.551Z,436.00
2022-08-24T16:43:31.722Z,304.00
2022-08-24T16:48:31.931Z,256.00
2022-08-24T16:53:30.118Z,244.00
2022-08-24T16:58:31.358Z,188.00
2022-08-24T17:03:28.594Z,224.00
2022-08-24T17:08:27.810Z,196.00
2022-08-24T17:13:48.474Z,128.00
2022-08-24T17:18:28.274Z,120.00
2022-08-24T17:23:26.409Z,68.00
2022-08-24T17:28:24.610Z,56.00
2022-08-24T17:33:22.856Z,48.00
2022-08-24T17:38:23.101Z,40.00
2022-08-24T17:43:22.344Z,36.00
2022-08-24T17:48:22.579Z,28.00
2022-08-24T17:53:20.760Z,28.00
2022-08-24T17:58:19.948Z,24.00
2022-08-24T18:03:20.141Z,16.00
2022-08-24T18:08:20.321Z,12.00
2022-08-24T18:13:18.595Z,8.00
2022-08-24T18:18:17.790Z,8.00
2022-08-24T18:23:17.489Z,4.00
2022-08-24T18:28:16.272Z,4.00
2022-08-24T18:33:13.443Z,0.00
2022-08-24T18:38:15.638Z,0.00
2022-08-24T18:43:12.859Z,0.00
2022-08-24T18:48:13.220Z,0.00
2022-08-24T18:53:11.231Z,0.00
2022-08-24T18:58:11.427Z,0.00
2022-08-24T19:03:09.811Z,0.00
2022-08-24T19:08:11.957Z,0.00
2022-08-24T19:13:08.226Z,0.00
2022-08-24T19:18:07.570Z,0.00
2022-08-24T19:23:07.768Z,0.00
2022-08-24T19:28:06.990Z,0.00
2022-08-24T19:33:05.993Z,0.00
2022-08-24T19:38:05.354Z,0.00
2022-08-24T19:43:03.752Z,0.00
2022-08-24T19:48:03.005Z,0.00
2022-08-24T19:53:02.246Z,0.00
2022-08-24T19:58:03.279Z,0.00
2022-08-24T20:03:00.509Z,0.00
2022-08-24T20:07:59.797Z,0.00
2022-08-24T20:13:00.078Z,0.00
2022-08-24T20:17:59.315Z,0.00
2022-08-24T20:22:58.502Z,0.00
2022-08-24T20:28:18.514Z,0.00
2022-08-24T20:32:57.991Z,0.00
2022-08-24T20:37:56.449Z,0.00
2022-08-24T20:42:56.514Z,0.00
2022-08-24T20:47:54.723Z,0.00
2022-08-24T20:52:53.875Z,0.00
2022-08-24T20:57:53.171Z,0.00
2022-08-24T21:02:51.362Z,0.00
2022-08-24T21:07:51.721Z,0.00
2022-08-24T21:12:49.928Z,0.00
2022-08-24T21:17:49.082Z,0.00
2022-08-24T21:22:48.233Z,0.00
2022-08-24T21:27:47.395Z,0.00
2022-08-24T21:32:46.549Z,0.00
2022-08-24T21:37:45.716Z,0.00
2022-08-24T21:42:46.010Z,0.00
2022-08-24T21:47:44.303Z,0.00
2022-08-24T21:52:43.671Z,0.00
2022-08-24T21:57:43.770Z,0.00
2022-08-24T22:02:42.214Z,0.00
2022-08-24T22:07:41.397Z,0.00
2022-08-24T22:12:41.534Z,0.00
2022-08-24T22:17:41.667Z,0.00
2022-08-24T22:22:39.019Z,0.00
2022-08-24T22:27:39.161Z,0.00
2022-08-24T22:32:38.541Z,0.00
2022-08-24T22:37:37.864Z,0.00
2022-08-24T22:42:36.829Z,0.00
2022-08-24T22:47:37.132Z,0.00
2022-08-24T22:52:34.419Z,0.00
2022-08-24T22:57:34.592Z,0.00
2022-08-24T23:02:32.740Z,0.00
2022-08-24T23:07:31.888Z,0.00
2022-08-24T23:12:31.259Z,0.00
2022-08-24T23:17:31.437Z,0.00
2022-08-24T23:22:30.528Z,0.00
2022-08-24T23:27:37.653Z,0.00
2022-08-24T23:32:28.018Z,0.00
2022-08-24T23:37:27.352Z,0.00
2022-08-24T23:42:26.721Z,0.00
2022-08-24T23:47:26.830Z,0.00
2022-08-24T23:52:28.187Z,0.00
2022-08-24T23:57:26.437Z,0.00
